N124MC KPOU-KCXY
Flight info
| Callsign | N124MC |
|---|---|
| Flight time | 1h 5m |
| Altitude | 4500 |
| Route | VFR |
| Aircraft | M20P/L-VGD/C |
Departure
| Time | 2026-05-04 18:08 |
|---|---|
| Airport | Dutchess County Airport (KPOU) |
Arrival
| Time | 2026-05-04 19:13 |
|---|---|
| Airport | Capital City Airport (KCXY) |
| Time | Latitude | Longitude | Altitude | Speed | Heading |
|---|---|---|---|---|---|
| 2026-05-04 17:23 | 41.62464 | -73.88296 | 161 ft | 0 kts | 226° |
| 2026-05-04 18:05 | 41.62468 | -73.88308 | 161 ft | 6 kts | 351° |
| 2026-05-04 18:05 | 41.62513 | -73.88274 | 161 ft | 11 kts | 357° |
| 2026-05-04 18:05 | 41.62594 | -73.88331 | 160 ft | 11 kts | 3° |
| 2026-05-04 18:06 | 41.62726 | -73.88127 | 163 ft | 20 kts | 51° |
| 2026-05-04 18:06 | 41.62834 | -73.87952 | 160 ft | 27 kts | 50° |
| 2026-05-04 18:06 | 41.62946 | -73.87770 | 161 ft | 17 kts | 45° |
| 2026-05-04 18:07 | 41.63029 | -73.87813 | 160 ft | 13 kts | 308° |
| 2026-05-04 18:07 | 41.62984 | -73.87913 | 161 ft | 24 kts | 232° |
| 2026-05-04 18:07 | 41.62782 | -73.88237 | 181 ft | 61 kts | 229° |
| 2026-05-04 18:07 | 41.62441 | -73.88730 | 361 ft | 76 kts | 226° |
| 2026-05-04 18:08 | 41.62144 | -73.89349 | 685 ft | 84 kts | 240° |
| 2026-05-04 18:08 | 41.61848 | -73.90028 | 1031 ft | 86 kts | 239° |
| 2026-05-04 18:08 | 41.61544 | -73.90715 | 1396 ft | 84 kts | 242° |
| 2026-05-04 18:08 | 41.61238 | -73.91384 | 1795 ft | 89 kts | 239° |
| 2026-05-04 18:09 | 41.60628 | -73.92765 | 2529 ft | 81 kts | 240° |
| 2026-05-04 18:09 | 41.60086 | -73.93941 | 3275 ft | 70 kts | 240° |
| 2026-05-04 18:10 | 41.59825 | -73.94522 | 3565 ft | 76 kts | 240° |
| 2026-05-04 18:10 | 41.59525 | -73.95192 | 3719 ft | 92 kts | 240° |
| 2026-05-04 18:10 | 41.59180 | -73.95960 | 3907 ft | 99 kts | 241° |
| 2026-05-04 18:10 | 41.58819 | -73.96760 | 4128 ft | 103 kts | 240° |
| 2026-05-04 18:11 | 41.58439 | -73.97598 | 4348 ft | 108 kts | 240° |
| 2026-05-04 18:11 | 41.58038 | -73.98482 | 4502 ft | 118 kts | 240° |
| 2026-05-04 18:11 | 41.57580 | -73.99480 | 4519 ft | 133 kts | 240° |
| 2026-05-04 18:11 | 41.57094 | -74.00563 | 4526 ft | 142 kts | 241° |
| 2026-05-04 18:12 | 41.56575 | -74.01718 | 4527 ft | 147 kts | 239° |
| 2026-05-04 18:12 | 41.56035 | -74.02905 | 4518 ft | 152 kts | 239° |
| 2026-05-04 18:12 | 41.55478 | -74.04128 | 4509 ft | 156 kts | 240° |
| 2026-05-04 18:12 | 41.54908 | -74.05374 | 4504 ft | 157 kts | 239° |
| 2026-05-04 18:13 | 41.54342 | -74.06614 | 4514 ft | 157 kts | 240° |
| 2026-05-04 18:13 | 41.53779 | -74.07864 | 4498 ft | 156 kts | 239° |
| 2026-05-04 18:13 | 41.52659 | -74.10316 | 4501 ft | 154 kts | 240° |
| 2026-05-04 18:14 | 41.52095 | -74.11551 | 4488 ft | 159 kts | 239° |
| 2026-05-04 18:14 | 41.51528 | -74.12800 | 4495 ft | 156 kts | 239° |
| 2026-05-04 18:14 | 41.50959 | -74.14058 | 4493 ft | 159 kts | 239° |
| 2026-05-04 18:15 | 41.49822 | -74.16544 | 4505 ft | 155 kts | 239° |
| 2026-05-04 18:15 | 41.48691 | -74.19015 | 4518 ft | 156 kts | 241° |
| 2026-05-04 18:15 | 41.48124 | -74.20255 | 4496 ft | 156 kts | 239° |
| 2026-05-04 18:16 | 41.47564 | -74.21487 | 4497 ft | 155 kts | 239° |
| 2026-05-04 18:16 | 41.47005 | -74.22711 | 4498 ft | 154 kts | 239° |
| 2026-05-04 18:16 | 41.46443 | -74.23930 | 4495 ft | 154 kts | 240° |
| 2026-05-04 18:17 | 41.45329 | -74.26383 | 4495 ft | 159 kts | 240° |
| 2026-05-04 18:17 | 41.44759 | -74.27639 | 4488 ft | 159 kts | 239° |
| 2026-05-04 18:17 | 41.43603 | -74.30130 | 4499 ft | 160 kts | 239° |
| 2026-05-04 18:18 | 41.43029 | -74.31388 | 4503 ft | 159 kts | 240° |
| 2026-05-04 18:18 | 41.42457 | -74.32640 | 4498 ft | 157 kts | 240° |
| 2026-05-04 18:18 | 41.41887 | -74.33879 | 4498 ft | 158 kts | 239° |
| 2026-05-04 18:18 | 41.41311 | -74.35128 | 4500 ft | 157 kts | 240° |
| 2026-05-04 18:19 | 41.40181 | -74.37598 | 4495 ft | 155 kts | 240° |
| 2026-05-04 18:19 | 41.39607 | -74.38845 | 4506 ft | 162 kts | 239° |
| 2026-05-04 18:19 | 41.39023 | -74.40117 | 4505 ft | 161 kts | 239° |
| 2026-05-04 18:20 | 41.38443 | -74.41377 | 4508 ft | 158 kts | 239° |
| 2026-05-04 18:20 | 41.37871 | -74.42627 | 4506 ft | 159 kts | 240° |
| 2026-05-04 18:20 | 41.37304 | -74.43849 | 4517 ft | 156 kts | 239° |
| 2026-05-04 18:20 | 41.36732 | -74.45093 | 4511 ft | 154 kts | 239° |
| 2026-05-04 18:21 | 41.36173 | -74.46303 | 4507 ft | 153 kts | 239° |
| 2026-05-04 18:21 | 41.35614 | -74.47509 | 4506 ft | 155 kts | 239° |
| 2026-05-04 18:21 | 41.35061 | -74.48717 | 4511 ft | 152 kts | 239° |
| 2026-05-04 18:21 | 41.34509 | -74.49911 | 4524 ft | 151 kts | 239° |
| 2026-05-04 18:22 | 41.33952 | -74.51123 | 4511 ft | 153 kts | 239° |
| 2026-05-04 18:22 | 41.33396 | -74.52325 | 4513 ft | 152 kts | 240° |
| 2026-05-04 18:22 | 41.32847 | -74.53520 | 4511 ft | 151 kts | 239° |
| 2026-05-04 18:22 | 41.32295 | -74.54712 | 4518 ft | 152 kts | 240° |
| 2026-05-04 18:23 | 41.31742 | -74.55910 | 4518 ft | 152 kts | 239° |
| 2026-05-04 18:23 | 41.31186 | -74.57104 | 4524 ft | 152 kts | 237° |
| 2026-05-04 18:23 | 41.30615 | -74.58324 | 4516 ft | 156 kts | 240° |
| 2026-05-04 18:23 | 41.30065 | -74.59530 | 4516 ft | 154 kts | 240° |
| 2026-05-04 18:24 | 41.29507 | -74.60741 | 4519 ft | 152 kts | 239° |
| 2026-05-04 18:24 | 41.28952 | -74.61939 | 4517 ft | 153 kts | 240° |
| 2026-05-04 18:24 | 41.28395 | -74.63136 | 4525 ft | 152 kts | 240° |
| 2026-05-04 18:24 | 41.27843 | -74.64329 | 4521 ft | 151 kts | 239° |
| 2026-05-04 18:25 | 41.27288 | -74.65517 | 4520 ft | 152 kts | 240° |
| 2026-05-04 18:25 | 41.26734 | -74.66725 | 4507 ft | 153 kts | 240° |
| 2026-05-04 18:25 | 41.26183 | -74.67910 | 4517 ft | 148 kts | 239° |
| 2026-05-04 18:25 | 41.25640 | -74.69075 | 4517 ft | 149 kts | 239° |
| 2026-05-04 18:26 | 41.25093 | -74.70254 | 4518 ft | 151 kts | 240° |
| 2026-05-04 18:26 | 41.24541 | -74.71445 | 4513 ft | 151 kts | 239° |
| 2026-05-04 18:26 | 41.23989 | -74.72633 | 4517 ft | 151 kts | 239° |
| 2026-05-04 18:26 | 41.23438 | -74.73815 | 4515 ft | 150 kts | 240° |
| 2026-05-04 18:27 | 41.22888 | -74.74998 | 4516 ft | 151 kts | 240° |
| 2026-05-04 18:27 | 41.22336 | -74.76188 | 4521 ft | 151 kts | 239° |
| 2026-05-04 18:27 | 41.21783 | -74.77371 | 4524 ft | 150 kts | 239° |
| 2026-05-04 18:27 | 41.21234 | -74.78551 | 4522 ft | 150 kts | 239° |
| 2026-05-04 18:28 | 41.20687 | -74.79723 | 4522 ft | 149 kts | 239° |
| 2026-05-04 18:28 | 41.20326 | -74.80498 | 4528 ft | 150 kts | 239° |
| 2026-05-04 18:28 | 41.19776 | -74.81678 | 4520 ft | 150 kts | 240° |
| 2026-05-04 18:28 | 41.19231 | -74.82851 | 4519 ft | 149 kts | 239° |
| 2026-05-04 18:29 | 41.18689 | -74.84011 | 4525 ft | 148 kts | 239° |
| 2026-05-04 18:29 | 41.18146 | -74.85176 | 4523 ft | 149 kts | 239° |
| 2026-05-04 18:29 | 41.17603 | -74.86341 | 4518 ft | 148 kts | 239° |
| 2026-05-04 18:29 | 41.17068 | -74.87484 | 4521 ft | 145 kts | 239° |
| 2026-05-04 18:30 | 41.15990 | -74.89790 | 4523 ft | 148 kts | 239° |
| 2026-05-04 18:30 | 41.15446 | -74.90954 | 4521 ft | 148 kts | 239° |
| 2026-05-04 18:30 | 41.14900 | -74.92114 | 4533 ft | 149 kts | 240° |
| 2026-05-04 18:31 | 41.14358 | -74.93288 | 4516 ft | 149 kts | 239° |
| 2026-05-04 18:31 | 41.13807 | -74.94454 | 4518 ft | 150 kts | 239° |
| 2026-05-04 18:31 | 41.13261 | -74.95622 | 4521 ft | 149 kts | 239° |
| 2026-05-04 18:31 | 41.12717 | -74.96783 | 4531 ft | 145 kts | 239° |
| 2026-05-04 18:32 | 41.12182 | -74.97925 | 4527 ft | 146 kts | 239° |
| 2026-05-04 18:32 | 41.11645 | -74.99069 | 4525 ft | 146 kts | 239° |
| 2026-05-04 18:32 | 41.11109 | -75.00212 | 4540 ft | 146 kts | 239° |
| 2026-05-04 18:32 | 41.10567 | -75.01368 | 4528 ft | 148 kts | 239° |
| 2026-05-04 18:33 | 41.10024 | -75.02526 | 4528 ft | 149 kts | 239° |
| 2026-05-04 18:33 | 41.09470 | -75.03696 | 4532 ft | 152 kts | 239° |
| 2026-05-04 18:33 | 41.08917 | -75.04890 | 4528 ft | 152 kts | 240° |
| 2026-05-04 18:33 | 41.08359 | -75.06075 | 4523 ft | 151 kts | 239° |
| 2026-05-04 18:34 | 41.07807 | -75.07245 | 4533 ft | 149 kts | 239° |
| 2026-05-04 18:34 | 41.07257 | -75.08415 | 4530 ft | 150 kts | 239° |
| 2026-05-04 18:34 | 41.06708 | -75.09585 | 4530 ft | 149 kts | 240° |
| 2026-05-04 18:34 | 41.06157 | -75.10756 | 4531 ft | 150 kts | 239° |
| 2026-05-04 18:35 | 41.05600 | -75.11929 | 4528 ft | 150 kts | 239° |
| 2026-05-04 18:35 | 41.05050 | -75.13103 | 4529 ft | 151 kts | 239° |
| 2026-05-04 18:35 | 41.04492 | -75.14287 | 4526 ft | 153 kts | 239° |
| 2026-05-04 18:35 | 41.03934 | -75.15480 | 4508 ft | 153 kts | 239° |
| 2026-05-04 18:36 | 41.03362 | -75.16683 | 4501 ft | 156 kts | 239° |
| 2026-05-04 18:36 | 41.02790 | -75.17901 | 4506 ft | 155 kts | 238° |
| 2026-05-04 18:36 | 41.02215 | -75.19112 | 4499 ft | 156 kts | 239° |
| 2026-05-04 18:36 | 41.01634 | -75.20356 | 4504 ft | 161 kts | 239° |
| 2026-05-04 18:37 | 41.01033 | -75.21623 | 4484 ft | 163 kts | 238° |
| 2026-05-04 18:37 | 41.00444 | -75.22859 | 4490 ft | 156 kts | 239° |
| 2026-05-04 18:37 | 40.99881 | -75.24072 | 4489 ft | 154 kts | 238° |
| 2026-05-04 18:37 | 40.99303 | -75.25281 | 4488 ft | 158 kts | 239° |
| 2026-05-04 18:38 | 40.98725 | -75.26499 | 4493 ft | 154 kts | 238° |
| 2026-05-04 18:38 | 40.98159 | -75.27692 | 4494 ft | 151 kts | 238° |
| 2026-05-04 18:38 | 40.97603 | -75.28870 | 4492 ft | 150 kts | 238° |
| 2026-05-04 18:38 | 40.97047 | -75.30046 | 4490 ft | 151 kts | 239° |
| 2026-05-04 18:39 | 40.96495 | -75.31210 | 4497 ft | 149 kts | 239° |
| 2026-05-04 18:39 | 40.95945 | -75.32373 | 4495 ft | 149 kts | 238° |
| 2026-05-04 18:39 | 40.95392 | -75.33531 | 4489 ft | 149 kts | 239° |
| 2026-05-04 18:39 | 40.94852 | -75.34683 | 4498 ft | 146 kts | 239° |
| 2026-05-04 18:40 | 40.94309 | -75.35825 | 4500 ft | 148 kts | 239° |
| 2026-05-04 18:40 | 40.93759 | -75.36979 | 4506 ft | 149 kts | 239° |
| 2026-05-04 18:40 | 40.93209 | -75.38142 | 4500 ft | 149 kts | 239° |
| 2026-05-04 18:40 | 40.92656 | -75.39302 | 4500 ft | 149 kts | 239° |
| 2026-05-04 18:41 | 40.92098 | -75.40482 | 4508 ft | 156 kts | 239° |
| 2026-05-04 18:41 | 40.91511 | -75.41705 | 4486 ft | 162 kts | 238° |
| 2026-05-04 18:41 | 40.90926 | -75.42944 | 4502 ft | 156 kts | 239° |
| 2026-05-04 18:41 | 40.90351 | -75.44154 | 4506 ft | 156 kts | 238° |
| 2026-05-04 18:42 | 40.89773 | -75.45365 | 4496 ft | 155 kts | 238° |
| 2026-05-04 18:42 | 40.89196 | -75.46567 | 4502 ft | 155 kts | 237° |
| 2026-05-04 18:42 | 40.88610 | -75.47790 | 4516 ft | 159 kts | 240° |
| 2026-05-04 18:42 | 40.88021 | -75.49049 | 4491 ft | 160 kts | 239° |
| 2026-05-04 18:43 | 40.87424 | -75.50304 | 4487 ft | 162 kts | 239° |
| 2026-05-04 18:43 | 40.86822 | -75.51556 | 4506 ft | 161 kts | 239° |
| 2026-05-04 18:43 | 40.86221 | -75.52819 | 4518 ft | 162 kts | 239° |
| 2026-05-04 18:43 | 40.85606 | -75.54113 | 4490 ft | 164 kts | 239° |
| 2026-05-04 18:44 | 40.85009 | -75.55347 | 4495 ft | 161 kts | 238° |
| 2026-05-04 18:44 | 40.84609 | -75.56187 | 4495 ft | 159 kts | 239° |
| 2026-05-04 18:44 | 40.83840 | -75.57808 | 4500 ft | 155 kts | 239° |
| 2026-05-04 18:44 | 40.83265 | -75.59023 | 4493 ft | 158 kts | 238° |
| 2026-05-04 18:45 | 40.82666 | -75.60244 | 4494 ft | 157 kts | 238° |
| 2026-05-04 18:45 | 40.82092 | -75.61449 | 4509 ft | 156 kts | 238° |
| 2026-05-04 18:45 | 40.81511 | -75.62672 | 4495 ft | 154 kts | 239° |
| 2026-05-04 18:45 | 40.80950 | -75.63842 | 4493 ft | 151 kts | 239° |
| 2026-05-04 18:46 | 40.80385 | -75.65026 | 4498 ft | 152 kts | 238° |
| 2026-05-04 18:46 | 40.79809 | -75.66212 | 4520 ft | 155 kts | 238° |
| 2026-05-04 18:46 | 40.79236 | -75.67422 | 4496 ft | 153 kts | 239° |
| 2026-05-04 18:46 | 40.78672 | -75.68602 | 4500 ft | 151 kts | 238° |
| 2026-05-04 18:47 | 40.78106 | -75.69782 | 4487 ft | 156 kts | 238° |
| 2026-05-04 18:47 | 40.77525 | -75.70989 | 4495 ft | 152 kts | 238° |
| 2026-05-04 18:47 | 40.76961 | -75.72163 | 4496 ft | 151 kts | 238° |
| 2026-05-04 18:47 | 40.76389 | -75.73323 | 4491 ft | 150 kts | 238° |
| 2026-05-04 18:48 | 40.75835 | -75.74500 | 4496 ft | 152 kts | 239° |
| 2026-05-04 18:48 | 40.75267 | -75.75674 | 4499 ft | 153 kts | 237° |
| 2026-05-04 18:48 | 40.74702 | -75.76873 | 4496 ft | 155 kts | 238° |
| 2026-05-04 18:48 | 40.74130 | -75.78063 | 4497 ft | 152 kts | 238° |
| 2026-05-04 18:49 | 40.73563 | -75.79235 | 4495 ft | 151 kts | 238° |
| 2026-05-04 18:49 | 40.72999 | -75.80404 | 4496 ft | 151 kts | 238° |
| 2026-05-04 18:49 | 40.72434 | -75.81575 | 4495 ft | 152 kts | 238° |
| 2026-05-04 18:49 | 40.71867 | -75.82759 | 4491 ft | 154 kts | 239° |
| 2026-05-04 18:50 | 40.71294 | -75.83942 | 4497 ft | 153 kts | 238° |
| 2026-05-04 18:50 | 40.70719 | -75.85125 | 4494 ft | 154 kts | 238° |
| 2026-05-04 18:50 | 40.70148 | -75.86316 | 4494 ft | 153 kts | 239° |
| 2026-05-04 18:50 | 40.69583 | -75.87492 | 4497 ft | 151 kts | 238° |
| 2026-05-04 18:51 | 40.69017 | -75.88663 | 4495 ft | 152 kts | 238° |
| 2026-05-04 18:51 | 40.68452 | -75.89833 | 4496 ft | 151 kts | 238° |
| 2026-05-04 18:51 | 40.67886 | -75.91004 | 4493 ft | 151 kts | 238° |
| 2026-05-04 18:51 | 40.67320 | -75.92175 | 4493 ft | 151 kts | 238° |
| 2026-05-04 18:52 | 40.66756 | -75.93341 | 4490 ft | 150 kts | 239° |
| 2026-05-04 18:52 | 40.66196 | -75.94500 | 4493 ft | 150 kts | 238° |
| 2026-05-04 18:52 | 40.65635 | -75.95659 | 4495 ft | 151 kts | 238° |
| 2026-05-04 18:52 | 40.65067 | -75.96832 | 4489 ft | 152 kts | 239° |
| 2026-05-04 18:53 | 40.64502 | -75.98001 | 4493 ft | 151 kts | 238° |
| 2026-05-04 18:53 | 40.63936 | -75.99168 | 4494 ft | 152 kts | 238° |
| 2026-05-04 18:53 | 40.63364 | -76.00349 | 4494 ft | 154 kts | 237° |
| 2026-05-04 18:53 | 40.62795 | -76.01523 | 4495 ft | 154 kts | 237° |
| 2026-05-04 18:54 | 40.62207 | -76.02722 | 4505 ft | 154 kts | 238° |
| 2026-05-04 18:54 | 40.61645 | -76.03895 | 4495 ft | 153 kts | 238° |
| 2026-05-04 18:54 | 40.61064 | -76.05101 | 4484 ft | 158 kts | 237° |
| 2026-05-04 18:54 | 40.60476 | -76.06307 | 4494 ft | 155 kts | 238° |
| 2026-05-04 18:55 | 40.59899 | -76.07493 | 4493 ft | 153 kts | 238° |
| 2026-05-04 18:55 | 40.58749 | -76.09858 | 4493 ft | 154 kts | 237° |
| 2026-05-04 18:55 | 40.58174 | -76.11037 | 4492 ft | 155 kts | 238° |
| 2026-05-04 18:56 | 40.57594 | -76.12237 | 4502 ft | 155 kts | 238° |
| 2026-05-04 18:56 | 40.57010 | -76.13439 | 4503 ft | 156 kts | 238° |
| 2026-05-04 18:56 | 40.56429 | -76.14625 | 4502 ft | 153 kts | 238° |
| 2026-05-04 18:56 | 40.55855 | -76.15802 | 4502 ft | 153 kts | 237° |
| 2026-05-04 18:57 | 40.55283 | -76.16980 | 4494 ft | 152 kts | 238° |
| 2026-05-04 18:57 | 40.54717 | -76.18143 | 4499 ft | 150 kts | 238° |
| 2026-05-04 18:57 | 40.54152 | -76.19300 | 4501 ft | 151 kts | 237° |
| 2026-05-04 18:57 | 40.53583 | -76.20468 | 4497 ft | 152 kts | 238° |
| 2026-05-04 18:58 | 40.53017 | -76.21630 | 4496 ft | 150 kts | 237° |
| 2026-05-04 18:58 | 40.52451 | -76.22785 | 4504 ft | 150 kts | 239° |
| 2026-05-04 18:58 | 40.51887 | -76.23943 | 4501 ft | 150 kts | 239° |
| 2026-05-04 18:58 | 40.51322 | -76.25102 | 4504 ft | 151 kts | 238° |
| 2026-05-04 18:59 | 40.50753 | -76.26268 | 4504 ft | 153 kts | 238° |
| 2026-05-04 18:59 | 40.50170 | -76.27453 | 4504 ft | 155 kts | 238° |
| 2026-05-04 18:59 | 40.49589 | -76.28649 | 4516 ft | 157 kts | 237° |
| 2026-05-04 18:59 | 40.48990 | -76.29870 | 4475 ft | 160 kts | 237° |
| 2026-05-04 19:00 | 40.48384 | -76.31109 | 4470 ft | 162 kts | 238° |
| 2026-05-04 19:00 | 40.47788 | -76.32331 | 4470 ft | 156 kts | 238° |
| 2026-05-04 19:00 | 40.47204 | -76.33529 | 4475 ft | 156 kts | 238° |
| 2026-05-04 19:00 | 40.46612 | -76.34726 | 4471 ft | 157 kts | 237° |
| 2026-05-04 19:01 | 40.46015 | -76.35940 | 4464 ft | 158 kts | 238° |
| 2026-05-04 19:01 | 40.45428 | -76.37142 | 4465 ft | 158 kts | 237° |
| 2026-05-04 19:01 | 40.44832 | -76.38359 | 4460 ft | 157 kts | 237° |
| 2026-05-04 19:01 | 40.44245 | -76.39552 | 4454 ft | 155 kts | 237° |
| 2026-05-04 19:02 | 40.43664 | -76.40740 | 4469 ft | 155 kts | 237° |
| 2026-05-04 19:02 | 40.43072 | -76.41936 | 4456 ft | 155 kts | 237° |
| 2026-05-04 19:02 | 40.42497 | -76.43115 | 4463 ft | 154 kts | 238° |
| 2026-05-04 19:02 | 40.41911 | -76.44296 | 4463 ft | 155 kts | 237° |
| 2026-05-04 19:03 | 40.41327 | -76.45496 | 4471 ft | 157 kts | 237° |
| 2026-05-04 19:03 | 40.40740 | -76.46695 | 4456 ft | 155 kts | 238° |
| 2026-05-04 19:03 | 40.40159 | -76.47875 | 4461 ft | 154 kts | 237° |
| 2026-05-04 19:03 | 40.39573 | -76.49060 | 4468 ft | 154 kts | 238° |
| 2026-05-04 19:04 | 40.38988 | -76.50247 | 4457 ft | 153 kts | 237° |
| 2026-05-04 19:04 | 40.38414 | -76.51413 | 4460 ft | 152 kts | 238° |
| 2026-05-04 19:04 | 40.37839 | -76.52574 | 4469 ft | 154 kts | 238° |
| 2026-05-04 19:04 | 40.37249 | -76.53774 | 4454 ft | 157 kts | 238° |
| 2026-05-04 19:05 | 40.36666 | -76.54973 | 4465 ft | 157 kts | 238° |
| 2026-05-04 19:05 | 40.36056 | -76.56197 | 4354 ft | 165 kts | 237° |
| 2026-05-04 19:05 | 40.35459 | -76.57414 | 4090 ft | 154 kts | 237° |
| 2026-05-04 19:05 | 40.34882 | -76.58572 | 3815 ft | 150 kts | 238° |
| 2026-05-04 19:06 | 40.34336 | -76.59681 | 3555 ft | 141 kts | 237° |
| 2026-05-04 19:06 | 40.33810 | -76.60745 | 3309 ft | 138 kts | 237° |
| 2026-05-04 19:06 | 40.33291 | -76.61798 | 3073 ft | 138 kts | 238° |
| 2026-05-04 19:06 | 40.32763 | -76.62878 | 2817 ft | 141 kts | 236° |
| 2026-05-04 19:07 | 40.32209 | -76.63966 | 2555 ft | 144 kts | 237° |
| 2026-05-04 19:07 | 40.31673 | -76.65046 | 2303 ft | 145 kts | 238° |
| 2026-05-04 19:07 | 40.31130 | -76.66173 | 2055 ft | 147 kts | 237° |
| 2026-05-04 19:07 | 40.30583 | -76.67277 | 1828 ft | 143 kts | 236° |
| 2026-05-04 19:08 | 40.30046 | -76.68364 | 1556 ft | 140 kts | 237° |
| 2026-05-04 19:08 | 40.29512 | -76.69426 | 1380 ft | 135 kts | 236° |
| 2026-05-04 19:08 | 40.29018 | -76.70424 | 1382 ft | 133 kts | 236° |
| 2026-05-04 19:08 | 40.28486 | -76.71496 | 1367 ft | 148 kts | 239° |
| 2026-05-04 19:09 | 40.27914 | -76.72658 | 1374 ft | 153 kts | 237° |
| 2026-05-04 19:09 | 40.27318 | -76.73856 | 1380 ft | 160 kts | 238° |
| 2026-05-04 19:09 | 40.26707 | -76.75092 | 1378 ft | 164 kts | 237° |
| 2026-05-04 19:09 | 40.26100 | -76.76313 | 1402 ft | 147 kts | 236° |
| 2026-05-04 19:10 | 40.25542 | -76.77332 | 1299 ft | 126 kts | 232° |
| 2026-05-04 19:10 | 40.25068 | -76.78146 | 1349 ft | 100 kts | 230° |
| 2026-05-04 19:10 | 40.24637 | -76.78763 | 1225 ft | 87 kts | 227° |
| 2026-05-04 19:10 | 40.24219 | -76.79316 | 1169 ft | 82 kts | 221° |
| 2026-05-04 19:11 | 40.23802 | -76.79833 | 1148 ft | 85 kts | 221° |
| 2026-05-04 19:11 | 40.23348 | -76.80367 | 1092 ft | 86 kts | 224° |
| 2026-05-04 19:11 | 40.22981 | -76.81009 | 936 ft | 91 kts | 236° |
| 2026-05-04 19:11 | 40.22676 | -76.81684 | 923 ft | 84 kts | 239° |
| 2026-05-04 19:12 | 40.22482 | -76.82428 | 765 ft | 87 kts | 245° |
| 2026-05-04 19:12 | 40.22154 | -76.83609 | 531 ft | 75 kts | 244° |
| 2026-05-04 19:12 | 40.21974 | -76.84270 | 365 ft | 80 kts | 244° |
| 2026-05-04 19:13 | 40.21822 | -76.84839 | 349 ft | 54 kts | 250° |
| 2026-05-04 19:13 | 40.21819 | -76.85027 | 346 ft | 12 kts | 8° |
| 2026-05-04 19:13 | 40.21911 | -76.85000 | 350 ft | 14 kts | 14° |
| 2026-05-04 19:13 | 40.21998 | -76.85004 | 349 ft | 13 kts | 288° |
| 2026-05-04 19:14 | 40.22043 | -76.85104 | 343 ft | 13 kts | 332° |
| 2026-05-04 19:14 | 40.22066 | -76.85158 | 339 ft | 0 kts | 262° |